createdAt,value
2023-03-10T00:00:35.732Z,94597.56
2023-03-10T00:03:02.355Z,94599.25
2023-03-10T00:05:28.971Z,94599.59
2023-03-10T00:07:55.633Z,94598.00
2023-03-10T00:10:22.395Z,94595.47
2023-03-10T00:12:48.995Z,94584.88
2023-03-10T00:15:15.647Z,94577.44
2023-03-10T00:17:42.281Z,94574.75
2023-03-10T00:20:12.166Z,94575.47
2023-03-10T00:22:41.709Z,94573.66
2023-03-10T00:25:09.896Z,94574.88
2023-03-10T00:27:36.586Z,94574.56
2023-03-10T00:30:05.010Z,94570.22
2023-03-10T00:32:31.703Z,94568.31
2023-03-10T00:34:58.284Z,94560.41
2023-03-10T00:37:24.934Z,94560.88
2023-03-10T00:39:53.065Z,94556.78
2023-03-10T00:42:20.276Z,94540.78
2023-03-10T00:44:47.727Z,94539.66
2023-03-10T00:47:14.696Z,94534.72
2023-03-10T00:49:41.361Z,94526.25
2023-03-10T00:52:08.016Z,94524.31
2023-03-10T00:54:34.595Z,94521.31
2023-03-10T00:57:01.248Z,94515.69
2023-03-10T00:59:29.603Z,94517.38
2023-03-10T01:01:59.640Z,94513.97
2023-03-10T01:04:26.559Z,94499.81
2023-03-10T01:06:53.230Z,94489.03
2023-03-10T01:09:19.933Z,94489.88
2023-03-10T01:11:46.667Z,94485.16
2023-03-10T01:14:15.985Z,94474.75
2023-03-10T01:16:42.806Z,94481.66
2023-03-10T01:19:09.511Z,94471.97
2023-03-10T01:21:38.221Z,94458.63
2023-03-10T01:24:08.102Z,94459.97
2023-03-10T01:26:34.833Z,94457.66
2023-03-10T01:29:01.772Z,94445.59
2023-03-10T01:31:28.680Z,94445.03
2023-03-10T01:33:55.378Z,94434.63
2023-03-10T01:36:28.833Z,94431.31
2023-03-10T01:38:57.069Z,94417.66
2023-03-10T01:41:24.217Z,94412.69
2023-03-10T01:43:53.607Z,94415.44
2023-03-10T01:46:37.296Z,94413.28
2023-03-10T01:49:44.678Z,94407.38
2023-03-10T01:52:16.682Z,94403.88
2023-03-10T01:54:49.862Z,94393.09
2023-03-10T01:57:21.430Z,94392.50
2023-03-10T01:59:49.792Z,94386.03
2023-03-10T02:02:17.996Z,94389.72
2023-03-10T02:04:50.989Z,94389.66
2023-03-10T02:07:22.946Z,94381.75
2023-03-10T02:09:52.307Z,94376.41
2023-03-10T02:12:19.102Z,94364.03
2023-03-10T02:14:47.758Z,94360.44
2023-03-10T02:17:18.168Z,94358.63
2023-03-10T02:20:04.389Z,94354.78
2023-03-10T02:22:32.854Z,94346.34
2023-03-10T02:25:25.732Z,94343.28
2023-03-10T02:27:52.761Z,94337.59
2023-03-10T02:30:39.582Z,94326.25
2023-03-10T02:33:10.768Z,94333.09
2023-03-10T02:35:37.651Z,94334.88
2023-03-10T02:38:04.800Z,94329.31
2023-03-10T02:40:46.007Z,94320.91
2023-03-10T02:43:31.840Z,94322.78
2023-03-10T02:46:06.700Z,94322.72
2023-03-10T02:48:36.930Z,94308.31
2023-03-10T02:51:09.307Z,94305.13
2023-03-10T02:53:35.969Z,94310.13
2023-03-10T02:56:02.954Z,94310.34
2023-03-10T02:58:31.631Z,94307.00
2023-03-10T03:00:59.556Z,94300.25
2023-03-10T03:03:26.403Z,94296.66
2023-03-10T03:05:53.430Z,94303.50
2023-03-10T03:08:20.773Z,94299.25
2023-03-10T03:10:47.460Z,94305.19
2023-03-10T03:13:14.407Z,94302.53
2023-03-10T03:15:41.102Z,94294.03
2023-03-10T03:18:07.746Z,94287.03
2023-03-10T03:20:36.607Z,94284.97
2023-03-10T03:23:04.007Z,94283.41
2023-03-10T03:25:30.755Z,94273.25
2023-03-10T03:27:57.781Z,94278.06
2023-03-10T03:30:27.447Z,94275.16
2023-03-10T03:32:55.016Z,94270.41
2023-03-10T03:35:24.974Z,94272.44
2023-03-10T03:37:53.056Z,94274.09
2023-03-10T03:40:21.086Z,94262.47
2023-03-10T03:42:50.329Z,94261.50
2023-03-10T03:45:19.114Z,94262.31
2023-03-10T03:47:46.238Z,94254.66
2023-03-10T03:50:15.101Z,94250.00
2023-03-10T03:52:42.518Z,94240.13
2023-03-10T03:55:11.046Z,94248.13
2023-03-10T03:57:37.824Z,94245.09
2023-03-10T04:00:12.084Z,94248.19
2023-03-10T04:02:38.938Z,94249.59
2023-03-10T04:05:06.235Z,94244.56
2023-03-10T04:07:33.007Z,94237.28
2023-03-10T04:09:59.762Z,94232.72
2023-03-10T04:12:27.468Z,94220.44
2023-03-10T04:14:54.173Z,94219.22
2023-03-10T04:17:20.811Z,94203.94
2023-03-10T04:19:54.146Z,94209.59
2023-03-10T04:22:23.920Z,94214.31
2023-03-10T04:24:50.548Z,94209.94
2023-03-10T04:27:17.172Z,94213.44
2023-03-10T04:29:43.858Z,94213.72
2023-03-10T04:32:10.498Z,94206.66
2023-03-10T04:34:37.161Z,94204.22
2023-03-10T04:37:04.015Z,94191.91
2023-03-10T04:39:30.893Z,94189.72
2023-03-10T04:41:57.508Z,94187.38
2023-03-10T04:44:30.848Z,94196.78
2023-03-10T04:46:58.393Z,94193.56
2023-03-10T04:49:25.153Z,94187.56
2023-03-10T04:51:51.885Z,94186.25
2023-03-10T04:54:18.545Z,94192.63
2023-03-10T04:56:45.222Z,94184.09
2023-03-10T04:59:12.087Z,94174.69
2023-03-10T05:01:38.814Z,94171.44
2023-03-10T05:04:06.089Z,94168.31
2023-03-10T05:06:32.920Z,94170.84
2023-03-10T05:09:01.027Z,94170.72
2023-03-10T05:11:27.683Z,94165.34
2023-03-10T05:13:54.311Z,94169.44
2023-03-10T05:16:22.990Z,94166.19
2023-03-10T05:18:49.806Z,94170.66
2023-03-10T05:21:16.730Z,94167.16
2023-03-10T05:23:43.541Z,94180.81
2023-03-10T05:26:11.694Z,94180.13
2023-03-10T05:28:38.767Z,94187.88
2023-03-10T05:31:13.444Z,94187.81
2023-03-10T05:33:40.412Z,94191.78
2023-03-10T05:36:08.783Z,94196.53
2023-03-10T05:38:36.263Z,94196.03
2023-03-10T05:41:07.152Z,94202.22
2023-03-10T05:43:34.079Z,94192.56
2023-03-10T05:46:01.215Z,94197.06
2023-03-10T05:48:27.834Z,94201.00
2023-03-10T05:51:13.440Z,94198.22
2023-03-10T05:53:41.262Z,94198.66
2023-03-10T05:56:10.758Z,94198.94
2023-03-10T05:58:37.860Z,94191.50
2023-03-10T06:01:05.143Z,94189.91
2023-03-10T06:03:33.326Z,94186.13
2023-03-10T06:06:00.562Z,94180.03
2023-03-10T06:08:30.525Z,94192.44
2023-03-10T06:10:58.250Z,94193.22
2023-03-10T06:13:25.751Z,94196.91
2023-03-10T06:16:03.505Z,94190.41
2023-03-10T06:18:30.274Z,94195.41
2023-03-10T06:20:57.064Z,94193.16
2023-03-10T06:23:25.901Z,94200.22
2023-03-10T06:26:01.559Z,94199.81
2023-03-10T06:28:33.217Z,94206.00
2023-03-10T06:31:02.188Z,94206.22
2023-03-10T06:33:30.015Z,94199.91
2023-03-10T06:35:56.998Z,94193.47
2023-03-10T06:38:24.078Z,94195.72
2023-03-10T06:40:50.995Z,94197.66
2023-03-10T06:43:17.887Z,94199.31
2023-03-10T06:45:46.150Z,94201.06
2023-03-10T06:48:13.823Z,94209.25
2023-03-10T06:50:42.322Z,94205.56
2023-03-10T06:53:10.235Z,94206.63
2023-03-10T06:55:37.904Z,94207.47
2023-03-10T06:58:04.650Z,94214.75
2023-03-10T07:00:31.317Z,94217.66
2023-03-10T07:02:58.283Z,94211.84
2023-03-10T07:05:27.272Z,94222.50
2023-03-10T07:07:55.361Z,94219.91
2023-03-10T07:10:23.046Z,94229.84
2023-03-10T07:12:55.208Z,94227.00
2023-03-10T07:15:26.476Z,94236.41
2023-03-10T07:17:56.171Z,94240.84
2023-03-10T07:20:23.938Z,94263.38
2023-03-10T07:22:50.673Z,94263.72
2023-03-10T07:25:17.445Z,94274.38
2023-03-10T07:27:44.132Z,94277.75
2023-03-10T07:30:12.054Z,94289.63
2023-03-10T07:32:38.712Z,94274.75
2023-03-10T07:35:05.906Z,94276.00
2023-03-10T07:37:32.524Z,94285.06
2023-03-10T07:39:59.150Z,94288.69
2023-03-10T07:42:25.758Z,94299.34
2023-03-10T07:44:52.444Z,94305.06
2023-03-10T07:47:19.123Z,94302.91
2023-03-10T07:49:47.094Z,94298.72
2023-03-10T07:52:15.322Z,94306.41
2023-03-10T07:54:44.275Z,94299.97
2023-03-10T07:57:12.453Z,94303.22
2023-03-10T07:59:39.180Z,94298.09
2023-03-10T08:02:06.292Z,94298.19
2023-03-10T08:04:33.425Z,94297.09
2023-03-10T08:07:02.313Z,94299.16
2023-03-10T08:09:29.934Z,94297.47
2023-03-10T08:11:58.623Z,94294.50
2023-03-10T08:14:25.638Z,94301.06
2023-03-10T08:16:52.361Z,94293.50
2023-03-10T08:19:19.011Z,94292.97
2023-03-10T08:21:45.644Z,94294.84
2023-03-10T08:24:12.330Z,94287.06
2023-03-10T08:26:39.116Z,94295.47
2023-03-10T08:29:05.991Z,94290.44
2023-03-10T08:31:32.654Z,94275.63
2023-03-10T08:33:59.435Z,94284.31
2023-03-10T08:36:29.425Z,94274.22
2023-03-10T08:38:57.424Z,94266.31
2023-03-10T08:41:31.246Z,94269.34
2023-03-10T08:43:59.678Z,94268.03
2023-03-10T08:46:28.633Z,94269.03
2023-03-10T08:48:55.840Z,94263.34
2023-03-10T08:51:22.923Z,94256.91
2023-03-10T08:53:51.141Z,94258.28
2023-03-10T08:56:19.752Z,94259.97
2023-03-10T08:58:46.650Z,94252.38
2023-03-10T09:01:15.712Z,94254.81
2023-03-10T09:03:44.164Z,94252.75
2023-03-10T09:06:10.907Z,94245.78
2023-03-10T09:08:39.732Z,94257.44
2023-03-10T09:11:06.405Z,94251.88
2023-03-10T09:13:33.163Z,94236.69
2023-03-10T09:16:00.393Z,94239.94
2023-03-10T09:18:27.087Z,94222.38
2023-03-10T09:20:53.724Z,94210.13
2023-03-10T09:23:20.364Z,94185.53
2023-03-10T09:25:47.161Z,94175.66
2023-03-10T09:28:15.384Z,94150.38
2023-03-10T09:30:43.491Z,94155.75
2023-03-10T09:33:19.006Z,94147.84
2023-03-10T09:35:52.833Z,94151.84
2023-03-10T09:38:30.392Z,94164.41
2023-03-10T09:41:08.758Z,94185.53
2023-03-10T09:43:42.634Z,94177.34
2023-03-10T09:46:25.393Z,94145.50
2023-03-10T09:49:06.969Z,94141.72
2023-03-10T09:51:33.563Z,94139.44
2023-03-10T09:54:04.350Z,94132.75
2023-03-10T09:56:36.201Z,94123.72
2023-03-10T09:59:11.289Z,94128.88
2023-03-10T10:01:44.302Z,94126.22
2023-03-10T10:04:23.358Z,94124.41
2023-03-10T10:06:51.184Z,94128.88
2023-03-10T10:09:47.408Z,94114.81
2023-03-10T10:12:23.539Z,94117.13
2023-03-10T10:14:59.292Z,94113.06
2023-03-10T10:17:39.204Z,94114.66
2023-03-10T10:20:25.708Z,94124.09
2023-03-10T10:22:52.359Z,94129.47
2023-03-10T10:25:24.679Z,94123.28
2023-03-10T10:27:56.132Z,94118.34
2023-03-10T10:30:40.379Z,94114.81
2023-03-10T10:33:09.422Z,94108.69
2023-03-10T10:35:42.032Z,94104.44
2023-03-10T10:38:11.377Z,94100.41
2023-03-10T10:40:56.930Z,94105.50
2023-03-10T10:43:23.631Z,94098.56
2023-03-10T10:46:07.484Z,94090.03
2023-03-10T10:48:46.554Z,94084.63
2023-03-10T10:51:29.158Z,94079.66
2023-03-10T10:53:57.448Z,94078.34
2023-03-10T10:56:24.577Z,94070.47
2023-03-10T10:59:23.072Z,94067.94
2023-03-10T11:01:55.690Z,94080.69
2023-03-10T11:04:24.215Z,94074.41
2023-03-10T11:06:51.915Z,94068.91
2023-03-10T11:09:21.608Z,94070.28
2023-03-10T11:11:48.384Z,94071.31
2023-03-10T11:14:39.843Z,94077.16
2023-03-10T11:17:15.152Z,94064.97
2023-03-10T11:20:16.856Z,94049.56
2023-03-10T11:23:18.583Z,94035.09
2023-03-10T11:26:04.431Z,94039.91
2023-03-10T11:29:00.069Z,94040.09
2023-03-10T11:31:32.719Z,94033.84
2023-03-10T11:34:19.499Z,94027.50
2023-03-10T11:37:11.228Z,94035.94
2023-03-10T11:39:41.658Z,94020.41
2023-03-10T11:42:16.402Z,94020.72
2023-03-10T11:44:52.016Z,94020.38
2023-03-10T11:47:31.976Z,94017.63
2023-03-10T11:50:14.488Z,94010.06
2023-03-10T11:52:42.302Z,94006.44
2023-03-10T11:55:20.041Z,94003.09
2023-03-10T11:57:50.636Z,94003.50
2023-03-10T12:00:41.470Z,94009.03
2023-03-10T12:03:31.461Z,94006.69
2023-03-10T12:06:00.472Z,94007.47
2023-03-10T12:08:33.565Z,93999.63
2023-03-10T12:11:02.588Z,93996.50
2023-03-10T12:13:53.086Z,94000.13
2023-03-10T12:16:23.859Z,93994.66
2023-03-10T12:18:50.824Z,93999.19
2023-03-10T12:21:29.858Z,93988.56
2023-03-10T12:23:58.983Z,93986.63
2023-03-10T12:26:37.585Z,93990.94
2023-03-10T12:29:27.084Z,93992.19
2023-03-10T12:31:55.305Z,93991.34
2023-03-10T12:34:29.160Z,93999.22
2023-03-10T12:37:09.863Z,93997.28
2023-03-10T12:39:43.621Z,94001.41
2023-03-10T12:42:32.990Z,94003.25
2023-03-10T12:45:29.364Z,94004.28
2023-03-10T12:48:04.550Z,94003.13
2023-03-10T12:50:49.490Z,94007.81
2023-03-10T12:53:27.905Z,94026.34
2023-03-10T12:56:36.817Z,94111.81
2023-03-10T12:59:17.257Z,94124.00
2023-03-10T13:01:55.519Z,94156.97
2023-03-10T13:04:23.573Z,94160.16
2023-03-10T13:06:50.454Z,94192.78
2023-03-10T13:09:26.171Z,94201.63
2023-03-10T13:11:59.216Z,94203.91
2023-03-10T13:14:40.466Z,94209.25
2023-03-10T13:17:09.710Z,94213.47
2023-03-10T13:19:37.711Z,94217.06
2023-03-10T13:22:07.174Z,94224.50
2023-03-10T13:24:37.382Z,94208.00
2023-03-10T13:27:18.971Z,94173.16
2023-03-10T13:30:03.076Z,94138.03
2023-03-10T13:32:30.825Z,94149.00
2023-03-10T13:34:58.217Z,94142.72
2023-03-10T13:37:25.478Z,94154.22
2023-03-10T13:39:52.198Z,94147.84
2023-03-10T13:42:41.016Z,94157.22
2023-03-10T13:45:21.724Z,94139.75
2023-03-10T13:47:48.575Z,94135.25
2023-03-10T13:50:17.005Z,94129.94
2023-03-10T13:52:57.327Z,94122.28
2023-03-10T13:55:24.200Z,94128.88
2023-03-10T13:57:51.782Z,94130.09
2023-03-10T14:00:21.423Z,94124.59
2023-03-10T14:02:49.986Z,94131.72
2023-03-10T14:05:41.522Z,94130.03
2023-03-10T14:08:23.690Z,94112.25
2023-03-10T14:10:50.309Z,94127.31
2023-03-10T14:13:44.584Z,94119.59
2023-03-10T14:16:11.887Z,94114.28
2023-03-10T14:18:40.587Z,94123.88
2023-03-10T14:21:59.983Z,94116.44
2023-03-10T14:24:28.366Z,94116.72
2023-03-10T14:27:00.195Z,94112.28
2023-03-10T14:29:27.473Z,94116.41
2023-03-10T14:31:54.145Z,94116.84
2023-03-10T14:34:20.755Z,94110.94
2023-03-10T14:36:47.409Z,94096.78
2023-03-10T14:39:14.527Z,94095.19
2023-03-10T14:41:41.218Z,94098.22
2023-03-10T14:44:10.713Z,94097.59
2023-03-10T14:46:37.578Z,94096.81
2023-03-10T14:49:08.118Z,94096.97
2023-03-10T14:51:36.431Z,94077.69
2023-03-10T14:54:03.891Z,94084.81
2023-03-10T14:56:31.708Z,94066.41
2023-03-10T14:59:02.253Z,94063.78
2023-03-10T15:01:29.458Z,94073.00
2023-03-10T15:03:56.282Z,94072.69
2023-03-10T15:06:23.840Z,94068.28
2023-03-10T15:08:50.498Z,94074.41
2023-03-10T15:11:24.180Z,94059.03
2023-03-10T15:13:57.847Z,94062.34
2023-03-10T15:16:24.464Z,94062.72
2023-03-10T15:18:53.151Z,94059.59
2023-03-10T15:21:20.066Z,94069.75
2023-03-10T15:23:46.685Z,94061.53
2023-03-10T15:26:13.690Z,94072.53
2023-03-10T15:28:40.467Z,94073.38
2023-03-10T15:31:07.178Z,94069.38
2023-03-10T15:33:33.958Z,94080.94
2023-03-10T15:36:00.743Z,94079.31
2023-03-10T15:38:27.637Z,94075.28
2023-03-10T15:40:54.333Z,94082.91
2023-03-10T15:43:20.990Z,94100.03
2023-03-10T15:45:49.317Z,94097.97
2023-03-10T15:48:16.727Z,94113.53
2023-03-10T15:50:47.071Z,94115.19
2023-03-10T15:53:14.365Z,94126.19
2023-03-10T15:55:42.473Z,94143.47
2023-03-10T15:58:11.170Z,94152.16
2023-03-10T16:00:38.241Z,94144.75
2023-03-10T16:03:04.866Z,94158.25
2023-03-10T16:05:31.502Z,94166.44
2023-03-10T16:07:58.108Z,94169.34
2023-03-10T16:10:24.746Z,94170.19
2023-03-10T16:12:51.803Z,94169.88
2023-03-10T16:15:18.660Z,94159.94
2023-03-10T16:17:45.520Z,94155.56
2023-03-10T16:20:13.877Z,94155.56
2023-03-10T16:22:43.061Z,94160.25
2023-03-10T16:25:15.475Z,94160.75
2023-03-10T16:27:43.373Z,94160.44
2023-03-10T16:30:11.860Z,94163.09
2023-03-10T16:32:38.680Z,94164.94
2023-03-10T16:35:06.235Z,94165.06
2023-03-10T16:37:32.887Z,94163.09
2023-03-10T16:39:59.652Z,94165.72
2023-03-10T16:42:26.557Z,94167.78
2023-03-10T16:44:57.057Z,94161.94
2023-03-10T16:47:24.000Z,94183.59
2023-03-10T16:49:50.669Z,94181.19
2023-03-10T16:52:17.318Z,94192.25
2023-03-10T16:54:46.552Z,94216.59
2023-03-10T16:57:14.606Z,94214.84
2023-03-10T16:59:42.640Z,94234.91
2023-03-10T17:02:16.570Z,94252.97
2023-03-10T17:04:43.426Z,94239.91
2023-03-10T17:07:10.174Z,94290.25
2023-03-10T17:09:38.063Z,94301.09
2023-03-10T17:12:05.286Z,94316.53
2023-03-10T17:14:31.990Z,94305.09
2023-03-10T17:16:58.825Z,94318.09
2023-03-10T17:19:29.866Z,94313.56
2023-03-10T17:21:57.328Z,94294.00
2023-03-10T17:24:24.920Z,94311.63
2023-03-10T17:26:51.650Z,94321.38
2023-03-10T17:29:18.462Z,94350.16
2023-03-10T17:31:50.606Z,94337.13
2023-03-10T17:34:18.443Z,94331.28
2023-03-10T17:36:45.186Z,94333.91
2023-03-10T17:39:18.154Z,94312.84
2023-03-10T17:41:45.377Z,94311.44
2023-03-10T17:44:12.052Z,94303.91
2023-03-10T17:46:41.073Z,94311.94
2023-03-10T17:49:11.620Z,94294.44
2023-03-10T17:51:40.773Z,94298.59
2023-03-10T17:54:07.591Z,94295.66
2023-03-10T17:56:34.514Z,94300.88
2023-03-10T17:59:01.205Z,94300.25
2023-03-10T18:01:30.044Z,94289.16
2023-03-10T18:03:58.634Z,94288.13
2023-03-10T18:06:28.656Z,94291.81
2023-03-10T18:08:56.641Z,94288.16
2023-03-10T18:11:24.537Z,94280.31
2023-03-10T18:13:51.677Z,94275.00
2023-03-10T18:16:22.143Z,94289.06
2023-03-10T18:18:49.594Z,94301.56
2023-03-10T18:21:17.899Z,94287.88
2023-03-10T18:23:45.344Z,94298.22
2023-03-10T18:26:14.631Z,94305.66
2023-03-10T18:28:41.752Z,94296.09
2023-03-10T18:31:10.927Z,94305.78
2023-03-10T18:33:37.909Z,94317.28
2023-03-10T18:36:07.902Z,94310.69
2023-03-10T18:38:34.632Z,94316.84
2023-03-10T18:41:03.011Z,94332.06
2023-03-10T18:43:32.127Z,94335.03
2023-03-10T18:45:58.896Z,94333.00
2023-03-10T18:48:28.298Z,94332.81
2023-03-10T18:50:56.857Z,94330.97
2023-03-10T18:53:24.787Z,94354.38
2023-03-10T18:55:51.782Z,94316.41
2023-03-10T18:58:18.792Z,94348.44
2023-03-10T19:00:45.684Z,94346.53
2023-03-10T19:03:13.776Z,94333.19
2023-03-10T19:05:41.446Z,94346.09
2023-03-10T19:08:10.425Z,94362.41
2023-03-10T19:10:39.378Z,94371.38
2023-03-10T19:13:07.622Z,94365.25
2023-03-10T19:15:36.635Z,94375.31
2023-03-10T19:18:03.716Z,94372.63
2023-03-10T19:20:30.349Z,94374.22
2023-03-10T19:22:57.393Z,94377.34
2023-03-10T19:25:24.090Z,94369.16
2023-03-10T19:27:50.928Z,94370.59
2023-03-10T19:30:20.502Z,94375.00
2023-03-10T19:32:48.172Z,94379.56
2023-03-10T19:35:16.465Z,94376.41
2023-03-10T19:37:43.629Z,94364.78
2023-03-10T19:40:17.423Z,94378.75
2023-03-10T19:42:44.763Z,94356.78
2023-03-10T19:45:17.359Z,94351.78
2023-03-10T19:47:44.619Z,94344.09
2023-03-10T19:50:17.095Z,94344.38
2023-03-10T19:52:48.500Z,94350.22
2023-03-10T19:55:23.100Z,94345.50
2023-03-10T19:57:51.553Z,94353.66
2023-03-10T20:00:24.830Z,94366.66
2023-03-10T20:02:53.425Z,94366.38
2023-03-10T20:05:20.853Z,94369.53
2023-03-10T20:07:47.556Z,94348.47
2023-03-10T20:10:16.978Z,94350.97
2023-03-10T20:12:44.077Z,94345.97
2023-03-10T20:15:11.051Z,94340.63
2023-03-10T20:17:37.735Z,94356.47
2023-03-10T20:20:10.389Z,94354.75
2023-03-10T20:22:42.803Z,94374.53
2023-03-10T20:25:11.696Z,94376.09
2023-03-10T20:27:38.469Z,94379.56
2023-03-10T20:30:14.254Z,94391.47
2023-03-10T20:32:40.968Z,94386.59
2023-03-10T20:35:08.518Z,94397.13
2023-03-10T20:37:35.951Z,94378.13
2023-03-10T20:40:06.634Z,94383.16
2023-03-10T20:42:34.187Z,94378.28
2023-03-10T20:45:00.977Z,94396.81
2023-03-10T20:47:27.584Z,94393.34
2023-03-10T20:49:54.227Z,94397.44
2023-03-10T20:52:21.006Z,94389.13
2023-03-10T20:54:47.660Z,94400.75
2023-03-10T20:57:14.868Z,94378.75
2023-03-10T20:59:41.478Z,94387.72
2023-03-10T21:02:08.082Z,94390.69
2023-03-10T21:04:34.784Z,94388.34
2023-03-10T21:07:01.415Z,94386.78
2023-03-10T21:09:28.275Z,94401.34
2023-03-10T21:11:54.869Z,94407.81
2023-03-10T21:14:21.518Z,94403.41
2023-03-10T21:16:48.205Z,94405.91
2023-03-10T21:19:14.880Z,94378.94
2023-03-10T21:21:41.561Z,94387.25
2023-03-10T21:24:08.250Z,94376.75
2023-03-10T21:26:36.035Z,94366.69
2023-03-10T21:29:03.787Z,94381.91
2023-03-10T21:31:30.801Z,94397.75
2023-03-10T21:33:57.391Z,94404.47
2023-03-10T21:36:24.502Z,94415.34
2023-03-10T21:38:51.668Z,94398.53
2023-03-10T21:41:22.227Z,94406.41
2023-03-10T21:43:49.329Z,94400.25
2023-03-10T21:46:16.387Z,94408.09
2023-03-10T21:48:44.321Z,94409.31
2023-03-10T21:51:16.237Z,94418.13
2023-03-10T21:53:43.430Z,94410.63
2023-03-10T21:56:10.241Z,94407.16
2023-03-10T21:58:37.295Z,94417.50
2023-03-10T22:01:08.042Z,94421.28
2023-03-10T22:03:35.286Z,94416.09
2023-03-10T22:06:04.832Z,94417.03
2023-03-10T22:08:35.692Z,94389.13
2023-03-10T22:11:03.418Z,94401.47
2023-03-10T22:13:30.011Z,94420.97
2023-03-10T22:15:59.662Z,94417.31
2023-03-10T22:18:26.576Z,94409.63
2023-03-10T22:20:53.175Z,94409.63
2023-03-10T22:23:19.810Z,94401.47
2023-03-10T22:25:46.598Z,94409.16
2023-03-10T22:28:13.388Z,94407.59
2023-03-10T22:30:40.795Z,94391.09
2023-03-10T22:33:07.706Z,94400.53
2023-03-10T22:35:36.057Z,94382.03
2023-03-10T22:38:03.671Z,94420.44
2023-03-10T22:40:30.687Z,94415.09
2023-03-10T22:42:57.952Z,94407.41
2023-03-10T22:45:27.573Z,94418.06
2023-03-10T22:47:57.917Z,94441.63
2023-03-10T22:50:27.484Z,94434.72
2023-03-10T22:52:54.332Z,94410.25
2023-03-10T22:55:24.576Z,94417.75
2023-03-10T22:57:52.871Z,94393.94
2023-03-10T23:00:22.869Z,94398.28
2023-03-10T23:02:52.202Z,94419.94
2023-03-10T23:05:19.037Z,94440.75
2023-03-10T23:07:46.560Z,94454.50
2023-03-10T23:10:25.278Z,94488.41
2023-03-10T23:12:53.012Z,94524.63
2023-03-10T23:15:25.111Z,94556.44
2023-03-10T23:17:52.855Z,94528.38
2023-03-10T23:20:19.735Z,94557.19
2023-03-10T23:22:47.109Z,94517.66
2023-03-10T23:25:20.375Z,94560.09
2023-03-10T23:27:47.076Z,94561.75
2023-03-10T23:30:15.112Z,94572.50
2023-03-10T23:32:46.057Z,94544.34
2023-03-10T23:35:15.172Z,94556.94
2023-03-10T23:37:42.016Z,94567.56
2023-03-10T23:40:15.290Z,94558.88
2023-03-10T23:42:43.115Z,94587.44
2023-03-10T23:45:12.864Z,94596.47
2023-03-10T23:47:40.396Z,94610.59
2023-03-10T23:50:26.013Z,94596.31
2023-03-10T23:52:52.861Z,94594.41
2023-03-10T23:55:26.561Z,94607.22
2023-03-10T23:57:53.482Z,94611.47
